This is the latest recevied weather packets stored in our database for station/object S59MA-6. If no packets are shown the sender has not sent any weather packets the latest 10 day(s).
| Time | Temp. | Humidity | Pressure | Rain* | Wind** | Luminosity | Snow |
|---|---|---|---|---|---|---|---|
| 1777631760 | 18.33° C | 44% | 1016.1 hPa | 132.08 mm | - | - | - |
| 1777631459 | 18.33° C | 44% | 1016.1 hPa | 253.75 mm | - | - | - |
| 1777630559 | 17.78° C | 44% | 1016.1 hPa | 253.75 mm | - | - | - |
| 1777630262 | 17.78° C | 45% | 1016.4 hPa | 253.75 mm | - | - | - |
| 1777629359 | 17.78° C | 45% | 1016.4 hPa | 253.75 mm | - | - | - |
| 1777628459 | 16.67° C | 45% | 1016.7 hPa | 253.75 mm | - | - | - |
| 1777627860 | 16.67° C | 43% | 1012.5 hPa | 132.08 mm | - | - | - |
| 1777627561 | 16.67° C | 44% | 1013.1 hPa | 132.08 mm | - | - | - |
| 1777627261 | 16.11° C | 44% | 1015.6 hPa | 0 mm | - | - | - |
| 1777626961 | 16.11° C | 45% | 1017 hPa | 0 mm | - | - | - |
| 1777626661 | 16.11° C | 45% | 1017 hPa | 0 mm | - | - | - |
| 1777626060 | 15.56° C | 44% | 1017 hPa | 0 mm | - | - | - |
| 1777625761 | 15.56° C | 46% | 1017.1 hPa | 0 mm | - | - | - |
| 1777625161 | 15.56° C | 47% | 1017.1 hPa | 0 mm | - | - | - |
| 1777624860 | 15° C | 47% | 1017.2 hPa | 0 mm | - | - | - |
| 1777624562 | 15° C | 48% | 1017.1 hPa | 0 mm | - | - | - |
| 1777624260 | 15° C | 49% | 1017.1 hPa | 0 mm | - | - | - |
| 1777623962 | 15° C | 51% | 1017.2 hPa | 0 mm | - | - | - |
| 1777623661 | 14.44° C | 53% | 1017.2 hPa | 0 mm | - | - | - |
| 1777623061 | 13.89° C | 54% | 1017.4 hPa | 0 mm | - | - | - |
| 1777622760 | 13.89° C | 55% | 1017.4 hPa | 0 mm | - | - | - |
| 1777622461 | 13.89° C | 55% | 1017.4 hPa | 0 mm | - | - | - |
| 1777622161 | 13.89° C | 55% | 1017.4 hPa | 0 mm | - | - | - |
| 1777589161 | 3.33° C | 63% | 1017.3 hPa | 0 mm | - | - | - |
| 1777587963 | 3.89° C | 63% | 1017.3 hPa | 0 mm | - | - | - |
* Rain latest hour (hover to see other rain measurements)
** Current wind speed in m/s (hover to see current wind gust speed)